createdAt,value
2022-12-18T00:00:23.804Z,99.73
2022-12-18T00:01:23.909Z,99.84
2022-12-18T00:02:23.845Z,99.84
2022-12-18T00:03:23.916Z,99.73
2022-12-18T00:04:23.912Z,99.63
2022-12-18T00:05:23.766Z,99.63
2022-12-18T00:06:23.989Z,99.73
2022-12-18T00:07:24.085Z,99.73
2022-12-18T00:08:24.213Z,99.73
2022-12-18T00:09:24.232Z,99.63
2022-12-18T00:10:24.223Z,99.52
2022-12-18T00:11:23.712Z,99.41
2022-12-18T00:12:24.324Z,99.35
2022-12-18T00:13:23.699Z,99.41
2022-12-18T00:14:23.720Z,99.63
2022-12-18T00:15:23.717Z,99.63
2022-12-18T00:16:23.809Z,99.52
2022-12-18T00:17:23.855Z,99.52
2022-12-18T00:18:23.857Z,99.52
2022-12-18T00:19:23.866Z,99.52
2022-12-18T00:20:23.676Z,99.52
2022-12-18T00:21:23.998Z,99.52
2022-12-18T00:22:23.886Z,99.52
2022-12-18T00:23:24.096Z,99.52
2022-12-18T00:24:24.107Z,99.41
2022-12-18T00:25:24.194Z,99.41
2022-12-18T00:26:24.124Z,99.52
2022-12-18T00:27:24.333Z,99.41
2022-12-18T00:28:23.723Z,99.41
2022-12-18T00:29:24.244Z,99.52
2022-12-18T00:30:23.941Z,99.63
2022-12-18T00:31:24.395Z,99.52
2022-12-18T00:32:23.820Z,99.41
2022-12-18T00:33:23.669Z,99.41
2022-12-18T00:34:23.797Z,99.41
2022-12-18T00:35:24.067Z,99.52
2022-12-18T00:36:24.403Z,99.41
2022-12-18T00:37:23.579Z,99.35
2022-12-18T00:38:24.199Z,99.30
2022-12-18T00:39:23.598Z,99.52
2022-12-18T00:40:24.417Z,99.63
2022-12-18T00:41:23.807Z,99.95
2022-12-18T00:42:23.727Z,99.95
2022-12-18T00:43:24.029Z,99.99
2022-12-18T00:44:23.486Z,99.95
2022-12-18T00:45:23.888Z,99.95
2022-12-18T00:46:23.635Z,99.84
2022-12-18T00:47:24.355Z,99.84
2022-12-18T00:48:24.335Z,99.73
2022-12-18T00:49:23.654Z,99.73
2022-12-18T00:50:23.533Z,99.73
2022-12-18T00:51:23.515Z,99.84
2022-12-18T00:52:23.492Z,99.95
2022-12-18T00:53:23.560Z,99.84
2022-12-18T00:54:23.571Z,99.84
2022-12-18T00:55:23.611Z,99.99
2022-12-18T00:56:23.711Z,99.99
2022-12-18T00:57:23.462Z,99.99
2022-12-18T00:58:23.419Z,99.99
2022-12-18T00:59:23.438Z,99.99
2022-12-18T01:00:23.543Z,99.90
2022-12-18T01:01:23.664Z,99.99
2022-12-18T01:02:23.543Z,99.99
2022-12-18T01:03:23.559Z,99.90
2022-12-18T01:04:23.430Z,99.90
2022-12-18T01:05:23.657Z,99.99
2022-12-18T01:06:23.656Z,99.99
2022-12-18T01:07:23.377Z,99.99
2022-12-18T01:08:23.449Z,99.99
2022-12-18T01:09:23.396Z,99.99
2022-12-18T01:10:23.676Z,99.99
2022-12-18T01:11:23.664Z,99.99
2022-12-18T01:12:23.882Z,99.90
2022-12-18T01:13:23.416Z,99.79
2022-12-18T01:14:24.353Z,99.58
2022-12-18T01:15:23.493Z,99.37
2022-12-18T01:16:23.707Z,99.41
2022-12-18T01:17:23.643Z,99.52
2022-12-18T01:18:23.862Z,99.69
2022-12-18T01:19:23.452Z,99.79
2022-12-18T01:20:23.721Z,99.79
2022-12-18T01:21:23.879Z,99.79
2022-12-18T01:22:23.480Z,99.79
2022-12-18T01:23:24.100Z,99.79
2022-12-18T01:24:23.371Z,99.79
2022-12-18T01:25:23.910Z,99.69
2022-12-18T01:26:23.360Z,99.73
2022-12-18T01:27:23.327Z,99.63
2022-12-18T01:28:23.316Z,99.63
2022-12-18T01:29:23.328Z,99.99
2022-12-18T01:30:23.335Z,99.99
2022-12-18T01:31:23.424Z,99.99
2022-12-18T01:32:23.396Z,99.99
2022-12-18T01:33:23.560Z,99.99
2022-12-18T01:34:23.233Z,99.99
2022-12-18T01:35:23.203Z,99.99
2022-12-18T01:36:23.572Z,99.99
2022-12-18T01:37:23.221Z,99.99
2022-12-18T01:38:23.583Z,99.99
2022-12-18T01:39:23.802Z,99.99
2022-12-18T01:40:23.812Z,99.99
2022-12-18T01:41:23.203Z,99.99
2022-12-18T01:42:23.872Z,99.99
2022-12-18T01:43:23.621Z,99.99
2022-12-18T01:44:23.633Z,99.99
2022-12-18T01:45:23.849Z,99.99
2022-12-18T01:46:23.640Z,99.99
2022-12-18T01:47:23.979Z,99.99
2022-12-18T01:48:24.068Z,99.99
2022-12-18T01:49:23.917Z,99.99
2022-12-18T01:50:23.257Z,99.99
2022-12-18T01:51:24.105Z,99.99
2022-12-18T01:52:24.007Z,99.99
2022-12-18T01:53:23.127Z,99.99
2022-12-18T01:54:23.107Z,99.99
2022-12-18T01:55:23.103Z,99.99
2022-12-18T01:56:23.084Z,99.99
2022-12-18T01:57:23.106Z,99.99
2022-12-18T01:58:23.095Z,99.92
2022-12-18T01:59:23.115Z,99.96
2022-12-18T02:00:23.124Z,99.96
2022-12-18T02:01:23.280Z,99.96
2022-12-18T02:02:23.242Z,99.85
2022-12-18T02:03:23.215Z,99.85
2022-12-18T02:04:23.184Z,99.69
2022-12-18T02:05:23.211Z,99.96
2022-12-18T02:06:23.023Z,99.99
2022-12-18T02:07:23.038Z,99.99
2022-12-18T02:08:23.042Z,99.99
2022-12-18T02:09:23.041Z,99.99
2022-12-18T02:10:23.009Z,99.99
2022-12-18T02:11:23.028Z,99.99
2022-12-18T02:12:23.065Z,99.99
2022-12-18T02:13:23.012Z,99.99
2022-12-18T02:14:23.058Z,99.99
2022-12-18T02:15:23.066Z,99.99
2022-12-18T02:16:23.205Z,99.99
2022-12-18T02:17:22.978Z,99.99
2022-12-18T02:18:23.045Z,99.99
2022-12-18T02:19:23.085Z,99.99
2022-12-18T02:20:22.946Z,99.99
2022-12-18T02:21:22.932Z,99.99
2022-12-18T02:22:23.105Z,99.99
2022-12-18T02:23:23.283Z,99.99
2022-12-18T02:24:22.942Z,99.99
2022-12-18T02:25:22.914Z,99.99
2022-12-18T02:26:22.952Z,99.90
2022-12-18T02:27:23.320Z,99.79
2022-12-18T02:28:23.322Z,99.79
2022-12-18T02:29:23.332Z,99.58
2022-12-18T02:30:23.033Z,99.63
2022-12-18T02:31:22.962Z,99.41
2022-12-18T02:32:23.356Z,99.30
2022-12-18T02:33:23.349Z,99.20
2022-12-18T02:34:22.871Z,99.20
2022-12-18T02:35:22.959Z,99.09
2022-12-18T02:36:22.969Z,99.09
2022-12-18T02:37:23.185Z,98.99
2022-12-18T02:38:23.395Z,99.09
2022-12-18T02:39:22.846Z,99.20
2022-12-18T02:40:23.407Z,99.20
2022-12-18T02:41:22.857Z,99.20
2022-12-18T02:42:23.415Z,99.09
2022-12-18T02:43:22.837Z,98.93
2022-12-18T02:44:22.834Z,98.71
2022-12-18T02:45:22.849Z,98.71
2022-12-18T02:46:23.033Z,98.60
2022-12-18T02:47:23.046Z,98.50
2022-12-18T02:48:22.804Z,98.39
2022-12-18T02:49:22.882Z,98.18
2022-12-18T02:50:22.863Z,98.18
2022-12-18T02:51:22.875Z,98.18
2022-12-18T02:52:22.887Z,98.18
2022-12-18T02:53:22.882Z,98.28
2022-12-18T02:54:22.910Z,98.39
2022-12-18T02:55:23.101Z,98.60
2022-12-18T02:56:23.113Z,98.71
2022-12-18T02:57:23.119Z,98.71
2022-12-18T02:58:22.913Z,99.03
2022-12-18T02:59:22.943Z,99.30
2022-12-18T03:00:23.139Z,99.41
2022-12-18T03:01:22.859Z,99.41
2022-12-18T03:02:23.095Z,99.41
2022-12-18T03:03:22.995Z,99.41
2022-12-18T03:04:23.378Z,99.30
2022-12-18T03:05:22.755Z,99.20
2022-12-18T03:06:23.178Z,99.20
2022-12-18T03:07:23.387Z,99.20
2022-12-18T03:08:22.986Z,99.20
2022-12-18T03:09:23.575Z,99.09
2022-12-18T03:10:23.646Z,98.99
2022-12-18T03:11:23.008Z,98.99
2022-12-18T03:12:23.012Z,98.99
2022-12-18T03:13:23.423Z,98.99
2022-12-18T03:14:23.561Z,98.99
2022-12-18T03:15:23.466Z,98.99
2022-12-18T03:16:22.688Z,99.09
2022-12-18T03:17:23.042Z,99.20
2022-12-18T03:18:23.691Z,99.41
2022-12-18T03:19:22.682Z,99.58
2022-12-18T03:20:22.708Z,99.69
2022-12-18T03:21:22.669Z,99.79
2022-12-18T03:22:22.695Z,99.90
2022-12-18T03:23:26.097Z,99.96
2022-12-18T03:24:22.909Z,99.96
2022-12-18T03:25:22.888Z,99.99
2022-12-18T03:26:22.903Z,99.99
2022-12-18T03:27:22.909Z,99.96
2022-12-18T03:28:22.915Z,99.96
2022-12-18T03:29:23.125Z,99.90
2022-12-18T03:30:23.137Z,99.79
2022-12-18T03:31:22.809Z,99.79
2022-12-18T03:32:22.951Z,99.85
2022-12-18T03:33:23.177Z,99.96
2022-12-18T03:34:23.383Z,99.96
2022-12-18T03:35:23.384Z,99.96
2022-12-18T03:36:22.561Z,99.90
2022-12-18T03:37:22.562Z,99.79
2022-12-18T03:38:22.583Z,99.79
2022-12-18T03:39:22.591Z,99.90
2022-12-18T03:40:22.600Z,99.90
2022-12-18T03:41:22.599Z,99.90
2022-12-18T03:42:22.609Z,99.99
2022-12-18T03:43:22.617Z,99.99
2022-12-18T03:44:22.619Z,99.99
2022-12-18T03:45:22.627Z,99.99
2022-12-18T03:46:22.578Z,99.99
2022-12-18T03:47:22.477Z,99.99
2022-12-18T03:48:22.497Z,99.99
2022-12-18T03:49:22.468Z,99.99
2022-12-18T03:50:22.705Z,99.99
2022-12-18T03:51:22.495Z,99.99
2022-12-18T03:52:22.474Z,99.99
2022-12-18T03:53:22.474Z,99.99
2022-12-18T03:54:22.483Z,99.99
2022-12-18T03:55:22.504Z,99.99
2022-12-18T03:56:22.502Z,99.99
2022-12-18T03:57:22.502Z,99.99
2022-12-18T03:58:22.582Z,99.90
2022-12-18T03:59:22.513Z,99.79
2022-12-18T04:00:22.542Z,99.69
2022-12-18T04:01:22.686Z,99.63
2022-12-18T04:02:22.475Z,99.52
2022-12-18T04:03:26.208Z,99.63
2022-12-18T04:04:22.371Z,99.69
2022-12-18T04:05:22.772Z,99.69
2022-12-18T04:06:22.349Z,99.63
2022-12-18T04:07:22.359Z,99.52
2022-12-18T04:08:22.781Z,99.41
2022-12-18T04:09:22.579Z,99.52
2022-12-18T04:10:22.328Z,99.52
2022-12-18T04:11:22.327Z,99.63
2022-12-18T04:12:22.806Z,99.73
2022-12-18T04:13:22.404Z,99.84
2022-12-18T04:14:22.815Z,99.73
2022-12-18T04:15:22.315Z,99.63
2022-12-18T04:16:22.416Z,99.52
2022-12-18T04:17:22.846Z,99.41
2022-12-18T04:18:22.853Z,99.41
2022-12-18T04:19:22.832Z,99.41
2022-12-18T04:20:22.272Z,99.30
2022-12-18T04:21:22.594Z,99.30
2022-12-18T04:22:22.872Z,99.20
2022-12-18T04:23:22.884Z,99.24
2022-12-18T04:24:22.471Z,99.20
2022-12-18T04:25:22.900Z,99.13
2022-12-18T04:26:22.308Z,99.13
2022-12-18T04:27:22.909Z,99.13
2022-12-18T04:28:22.909Z,99.03
2022-12-18T04:29:22.711Z,98.82
2022-12-18T04:30:22.310Z,98.82
2022-12-18T04:31:23.010Z,99.13
2022-12-18T04:32:22.348Z,99.13
2022-12-18T04:33:22.951Z,99.24
2022-12-18T04:34:22.536Z,99.24
2022-12-18T04:35:22.544Z,99.24
2022-12-18T04:36:22.756Z,99.24
2022-12-18T04:37:22.356Z,99.35
2022-12-18T04:38:22.357Z,99.35
2022-12-18T04:39:22.369Z,99.24
2022-12-18T04:40:22.385Z,99.13
2022-12-18T04:41:22.384Z,99.03
2022-12-18T04:42:22.234Z,99.03
2022-12-18T04:43:22.291Z,98.93
2022-12-18T04:44:22.605Z,98.82
2022-12-18T04:45:22.635Z,99.03
2022-12-18T04:46:22.638Z,99.13
2022-12-18T04:47:22.221Z,99.35
2022-12-18T04:48:22.631Z,99.24
2022-12-18T04:49:22.651Z,99.24
2022-12-18T04:50:22.851Z,99.24
2022-12-18T04:51:26.324Z,99.13
2022-12-18T04:52:23.570Z,99.24
2022-12-18T04:53:22.880Z,99.24
2022-12-18T04:54:22.879Z,99.13
2022-12-18T04:55:22.150Z,99.03
2022-12-18T04:56:22.196Z,98.93
2022-12-18T04:57:22.896Z,98.93
2022-12-18T04:58:22.898Z,98.93
2022-12-18T04:59:22.297Z,98.93
2022-12-18T05:00:23.127Z,98.93
2022-12-18T05:01:23.132Z,98.93
2022-12-18T05:02:22.175Z,99.03
2022-12-18T05:03:22.207Z,99.03
2022-12-18T05:04:22.152Z,98.93
2022-12-18T05:05:22.139Z,98.97
2022-12-18T05:06:22.144Z,98.93
2022-12-18T05:07:22.154Z,98.86
2022-12-18T05:08:22.223Z,98.75
2022-12-18T05:09:22.371Z,98.65
2022-12-18T05:10:22.372Z,98.54
2022-12-18T05:11:22.382Z,98.43
2022-12-18T05:12:22.031Z,98.43
2022-12-18T05:13:22.613Z,98.43
2022-12-18T05:14:22.608Z,98.43
2022-12-18T05:15:22.051Z,98.48
2022-12-18T05:16:22.074Z,98.48
2022-12-18T05:17:22.008Z,98.37
2022-12-18T05:18:22.010Z,98.37
2022-12-18T05:19:22.128Z,98.37
2022-12-18T05:20:22.237Z,98.48
2022-12-18T05:21:22.237Z,98.58
2022-12-18T05:22:22.058Z,98.69
2022-12-18T05:23:22.457Z,98.69
2022-12-18T05:24:22.356Z,98.69
2022-12-18T05:25:22.477Z,98.80
2022-12-18T05:26:22.476Z,98.91
2022-12-18T05:27:22.066Z,98.80
2022-12-18T05:28:22.274Z,98.80
2022-12-18T05:29:22.494Z,98.80
2022-12-18T05:30:22.084Z,98.69
2022-12-18T05:31:21.950Z,98.80
2022-12-18T05:32:22.095Z,98.69
2022-12-18T05:33:21.954Z,98.58
2022-12-18T05:34:22.334Z,98.58
2022-12-18T05:35:22.531Z,98.80
2022-12-18T05:36:21.924Z,98.80
2022-12-18T05:37:22.894Z,98.91
2022-12-18T05:38:22.040Z,99.01
2022-12-18T05:39:22.353Z,99.18
2022-12-18T05:40:22.766Z,99.29
2022-12-18T05:41:22.170Z,99.29
2022-12-18T05:42:22.658Z,99.29
2022-12-18T05:43:21.982Z,99.29
2022-12-18T05:44:21.968Z,99.40
2022-12-18T05:45:22.011Z,99.50
2022-12-18T05:46:22.033Z,99.50
2022-12-18T05:47:22.398Z,99.50
2022-12-18T05:48:22.608Z,99.50
2022-12-18T05:49:22.032Z,99.56
2022-12-18T05:50:22.007Z,99.67
2022-12-18T05:51:21.815Z,99.77
2022-12-18T05:52:21.835Z,99.77
2022-12-18T05:53:22.633Z,99.88
2022-12-18T05:54:21.843Z,99.99
2022-12-18T05:55:22.646Z,99.99
2022-12-18T05:56:21.853Z,99.99
2022-12-18T05:57:21.894Z,99.99
2022-12-18T05:58:21.771Z,99.99
2022-12-18T05:59:21.981Z,99.99
2022-12-18T06:00:21.784Z,99.99
2022-12-18T06:01:21.771Z,99.99
2022-12-18T06:02:21.882Z,99.99
2022-12-18T06:03:21.985Z,99.99
2022-12-18T06:04:21.931Z,99.99
2022-12-18T06:05:21.970Z,99.84
2022-12-18T06:06:21.719Z,99.73
2022-12-18T06:07:21.920Z,99.84
2022-12-18T06:08:21.729Z,99.90
2022-12-18T06:09:22.149Z,99.90
2022-12-18T06:10:21.791Z,99.84
2022-12-18T06:11:21.706Z,99.73
2022-12-18T06:12:22.379Z,99.63
2022-12-18T06:13:22.384Z,99.41
2022-12-18T06:14:22.386Z,99.30
2022-12-18T06:15:22.446Z,99.41
2022-12-18T06:16:22.478Z,99.52
2022-12-18T06:17:22.186Z,99.63
2022-12-18T06:18:22.240Z,99.52
2022-12-18T06:19:22.623Z,98.99
2022-12-18T06:20:22.593Z,98.93
2022-12-18T06:21:22.012Z,99.03
2022-12-18T06:22:22.073Z,99.41
2022-12-18T06:23:21.632Z,99.52
2022-12-18T06:24:21.671Z,99.63
2022-12-18T06:25:21.618Z,99.52
2022-12-18T06:26:27.617Z,99.20
2022-12-18T06:27:21.850Z,99.09
2022-12-18T06:28:21.701Z,98.99
2022-12-18T06:29:21.860Z,99.03
2022-12-18T06:30:22.140Z,99.09
2022-12-18T06:31:22.587Z,98.99
2022-12-18T06:32:21.617Z,99.20
2022-12-18T06:33:21.631Z,99.20
2022-12-18T06:34:21.558Z,99.30
2022-12-18T06:35:21.898Z,99.30
2022-12-18T06:36:21.596Z,99.41
2022-12-18T06:37:21.556Z,99.41
2022-12-18T06:38:21.565Z,99.41
2022-12-18T06:39:21.586Z,99.30
2022-12-18T06:40:21.545Z,99.30
2022-12-18T06:41:21.545Z,99.46
2022-12-18T06:42:21.550Z,99.30
2022-12-18T06:43:21.563Z,99.35
2022-12-18T06:44:21.544Z,99.24
2022-12-18T06:45:21.553Z,99.24
2022-12-18T06:46:21.598Z,99.13
2022-12-18T06:47:21.572Z,99.24
2022-12-18T06:48:21.471Z,99.13
2022-12-18T06:49:23.393Z,99.35
2022-12-18T06:50:21.590Z,99.46
2022-12-18T06:51:21.595Z,99.56
2022-12-18T06:52:21.451Z,99.84
2022-12-18T06:53:21.460Z,99.99
2022-12-18T06:54:21.610Z,99.99
2022-12-18T06:55:21.744Z,99.99
2022-12-18T06:56:21.430Z,99.99
2022-12-18T06:57:21.427Z,99.99
2022-12-18T06:58:21.447Z,99.99
2022-12-18T06:59:21.447Z,99.99
2022-12-18T07:00:21.456Z,99.79
2022-12-18T07:01:21.695Z,99.69
2022-12-18T07:02:21.624Z,99.63
2022-12-18T07:03:21.687Z,99.52
2022-12-18T07:04:21.685Z,99.63
2022-12-18T07:05:21.695Z,99.52
2022-12-18T07:06:21.765Z,99.48
2022-12-18T07:07:21.373Z,99.52
2022-12-18T07:08:21.412Z,99.69
2022-12-18T07:09:21.936Z,99.69
2022-12-18T07:10:21.404Z,99.69
2022-12-18T07:11:21.356Z,99.58
2022-12-18T07:12:21.342Z,99.41
2022-12-18T07:13:21.543Z,99.30
2022-12-18T07:14:21.540Z,99.30
2022-12-18T07:15:21.348Z,99.30
2022-12-18T07:16:25.164Z,99.58
2022-12-18T07:17:21.373Z,99.69
2022-12-18T07:18:21.361Z,99.79
2022-12-18T07:19:21.779Z,99.79
2022-12-18T07:20:21.370Z,99.69
2022-12-18T07:21:21.383Z,99.69
2022-12-18T07:22:21.676Z,99.58
2022-12-18T07:23:22.018Z,99.48
2022-12-18T07:24:22.019Z,99.37
2022-12-18T07:25:22.099Z,99.26
2022-12-18T07:26:21.632Z,99.09
2022-12-18T07:27:22.115Z,99.20
2022-12-18T07:28:22.115Z,99.15
2022-12-18T07:29:21.292Z,99.15
2022-12-18T07:30:21.514Z,99.15
2022-12-18T07:31:22.096Z,99.26
2022-12-18T07:32:22.144Z,99.26
2022-12-18T07:33:22.154Z,99.15
2022-12-18T07:34:21.474Z,99.15
2022-12-18T07:35:24.928Z,99.15
2022-12-18T07:36:21.552Z,99.26
2022-12-18T07:37:22.122Z,99.37
2022-12-18T07:38:21.681Z,99.26
2022-12-18T07:39:21.291Z,99.15
2022-12-18T07:40:21.201Z,99.05
2022-12-18T07:41:22.002Z,99.05
2022-12-18T07:42:21.332Z,99.05
2022-12-18T07:43:21.212Z,98.94
2022-12-18T07:44:21.939Z,98.94
2022-12-18T07:45:21.624Z,99.05
2022-12-18T07:46:21.217Z,99.26
2022-12-18T07:47:21.167Z,99.26
2022-12-18T07:48:21.888Z,99.37
2022-12-18T07:49:21.241Z,99.43
2022-12-18T07:50:21.245Z,99.43
2022-12-18T07:51:21.377Z,99.43
2022-12-18T07:52:25.764Z,99.54
2022-12-18T07:53:21.396Z,99.43
2022-12-18T07:54:21.491Z,99.43
2022-12-18T07:55:21.214Z,99.32
2022-12-18T07:56:30.004Z,99.32
2022-12-18T07:57:48.877Z,99.32
2022-12-18T07:58:21.318Z,99.22
2022-12-18T07:59:21.442Z,99.11
2022-12-18T08:00:21.390Z,99.01
2022-12-18T08:01:21.577Z,98.90
2022-12-18T08:02:21.636Z,98.79
2022-12-18T08:03:21.594Z,98.68
2022-12-18T08:04:21.091Z,98.79
2022-12-18T08:05:21.069Z,98.90
2022-12-18T08:06:22.755Z,99.11
2022-12-18T08:07:21.071Z,99.28
2022-12-18T08:08:21.091Z,99.60
2022-12-18T08:09:21.089Z,99.71
2022-12-18T08:10:21.088Z,99.81
2022-12-18T08:11:21.537Z,99.99
2022-12-18T08:12:21.107Z,99.98
2022-12-18T08:13:21.040Z,99.98
2022-12-18T08:14:21.125Z,99.98
2022-12-18T08:15:21.128Z,99.87
2022-12-18T08:16:21.205Z,99.77
2022-12-18T08:17:21.145Z,99.77
2022-12-18T08:18:21.145Z,99.77
2022-12-18T08:19:21.176Z,99.77
2022-12-18T08:20:21.154Z,99.66
2022-12-18T08:21:21.453Z,99.51
2022-12-18T08:22:21.174Z,99.55
2022-12-18T08:23:21.032Z,99.62
2022-12-18T08:24:20.982Z,99.62
2022-12-18T08:25:21.020Z,99.62
2022-12-18T08:26:21.090Z,99.68
2022-12-18T08:27:29.432Z,99.79
2022-12-18T08:28:21.002Z,99.89
2022-12-18T08:29:21.771Z,99.79
2022-12-18T08:30:21.020Z,99.68
2022-12-18T08:31:21.155Z,99.68
2022-12-18T08:32:21.048Z,99.52
2022-12-18T08:33:21.109Z,99.52
2022-12-18T08:34:21.056Z,99.52
2022-12-18T08:35:21.090Z,99.52
2022-12-18T08:36:21.058Z,99.63
2022-12-18T08:37:21.069Z,99.74
2022-12-18T08:38:20.970Z,99.69
2022-12-18T08:39:21.075Z,99.69
2022-12-18T08:40:20.877Z,99.80
2022-12-18T08:41:20.876Z,99.80
2022-12-18T08:42:21.101Z,99.76
2022-12-18T08:43:21.104Z,99.76
2022-12-18T08:44:20.904Z,99.76
2022-12-18T08:45:21.223Z,99.76
2022-12-18T08:46:21.277Z,99.76
2022-12-18T08:47:21.233Z,99.86
2022-12-18T08:48:22.411Z,99.82
2022-12-18T08:49:20.843Z,99.82
2022-12-18T08:50:20.852Z,99.92
2022-12-18T08:51:20.850Z,99.82
2022-12-18T08:52:20.984Z,99.82
2022-12-18T08:53:20.970Z,99.82
2022-12-18T08:54:20.982Z,99.77
2022-12-18T08:55:20.769Z,99.88
2022-12-18T08:56:21.201Z,99.98
2022-12-18T08:57:21.208Z,99.98
2022-12-18T08:58:21.319Z,99.98
2022-12-18T08:59:21.318Z,99.94
2022-12-18T09:00:20.819Z,99.94
2022-12-18T09:01:20.900Z,99.94
2022-12-18T09:02:21.069Z,99.94
2022-12-18T09:03:20.875Z,99.99
2022-12-18T09:04:20.835Z,99.99
2022-12-18T09:05:20.837Z,99.99
2022-12-18T09:06:20.955Z,99.99
2022-12-18T09:07:20.965Z,99.99
2022-12-18T09:08:21.063Z,99.99
2022-12-18T09:09:21.068Z,99.99
2022-12-18T09:10:20.781Z,99.99
2022-12-18T09:11:21.084Z,99.99
2022-12-18T09:12:21.202Z,99.99
2022-12-18T09:13:20.803Z,99.99
2022-12-18T09:14:20.814Z,99.99
2022-12-18T09:15:20.812Z,99.99
2022-12-18T09:16:21.257Z,99.99
2022-12-18T09:17:21.553Z,99.99
2022-12-18T09:18:21.539Z,99.99
2022-12-18T09:19:21.160Z,99.99
2022-12-18T09:20:21.049Z,99.99
2022-12-18T09:21:21.350Z,99.99
2022-12-18T09:22:20.749Z,99.99
2022-12-18T09:23:21.693Z,99.99
2022-12-18T09:24:20.965Z,99.99
2022-12-18T09:25:21.287Z,99.99
2022-12-18T09:26:21.667Z,99.99
2022-12-18T09:27:21.546Z,99.99
2022-12-18T09:28:20.903Z,99.99
2022-12-18T09:29:20.865Z,99.99
2022-12-18T09:30:20.794Z,99.93
2022-12-18T09:31:21.494Z,99.82
2022-12-18T09:32:22.489Z,99.71
2022-12-18T09:33:21.135Z,99.71
2022-12-18T09:34:20.824Z,99.51
2022-12-18T09:35:20.946Z,99.51
2022-12-18T09:36:21.162Z,99.51
2022-12-18T09:37:20.563Z,99.40
2022-12-18T09:38:20.582Z,99.40
2022-12-18T09:39:23.611Z,99.29
2022-12-18T09:40:20.581Z,99.25
2022-12-18T09:41:20.601Z,99.14
2022-12-18T09:42:20.670Z,99.14
2022-12-18T09:43:20.598Z,99.14
2022-12-18T09:44:20.722Z,99.14
2022-12-18T09:45:20.609Z,99.25
2022-12-18T09:46:20.827Z,99.41
2022-12-18T09:47:20.630Z,99.41
2022-12-18T09:48:20.522Z,99.31
2022-12-18T09:49:20.509Z,99.31
2022-12-18T09:50:20.740Z,99.31
2022-12-18T09:51:20.864Z,99.41
2022-12-18T09:52:20.487Z,99.31
2022-12-18T09:53:20.878Z,99.10
2022-12-18T09:54:20.466Z,98.99
2022-12-18T09:55:20.882Z,98.88
2022-12-18T09:56:20.487Z,98.88
2022-12-18T09:57:20.910Z,99.10
2022-12-18T09:58:21.124Z,99.20
2022-12-18T09:59:21.125Z,99.41
2022-12-18T10:00:20.736Z,99.69
2022-12-18T10:01:20.931Z,99.90
2022-12-18T10:02:21.195Z,99.79
2022-12-18T10:03:21.371Z,99.79
2022-12-18T10:04:21.400Z,99.79
2022-12-18T10:05:20.742Z,99.64
2022-12-18T10:06:21.164Z,99.64
2022-12-18T10:07:21.291Z,99.64
2022-12-18T10:08:21.192Z,99.75
2022-12-18T10:09:20.980Z,99.75
2022-12-18T10:10:21.267Z,99.80
2022-12-18T10:11:20.368Z,99.80
2022-12-18T10:12:20.349Z,99.91
2022-12-18T10:13:21.478Z,99.87
2022-12-18T10:14:21.087Z,99.82
2022-12-18T10:15:20.407Z,99.78
2022-12-18T10:16:20.466Z,99.48
2022-12-18T10:17:20.496Z,98.91
2022-12-18T10:18:22.201Z,98.08
2022-12-18T10:19:20.442Z,96.92
2022-12-18T10:20:20.590Z,96.03
2022-12-18T10:21:20.514Z,95.20
2022-12-18T10:22:20.654Z,94.31
2022-12-18T10:23:20.663Z,93.05
2022-12-18T10:24:20.265Z,92.80
2022-12-18T10:25:20.683Z,92.16
2022-12-18T10:26:20.763Z,91.91
2022-12-18T10:27:20.551Z,91.60
2022-12-18T10:28:20.446Z,91.56
2022-12-18T10:29:20.701Z,90.89
2022-12-18T10:30:20.921Z,90.57
2022-12-18T10:31:21.063Z,90.15
2022-12-18T10:32:21.142Z,89.35
2022-12-18T10:33:20.589Z,90.09
2022-12-18T10:34:20.257Z,90.61
2022-12-18T10:35:21.028Z,90.30
2022-12-18T10:36:21.067Z,90.51
2022-12-18T10:37:20.351Z,93.02
2022-12-18T10:38:20.827Z,94.08
2022-12-18T10:39:20.205Z,93.72
2022-12-18T10:40:22.591Z,92.99
2022-12-18T10:41:21.786Z,92.04
2022-12-18T10:42:20.257Z,91.62
2022-12-18T10:43:20.395Z,91.14
2022-12-18T10:44:20.256Z,90.51
2022-12-18T10:45:20.256Z,90.82
2022-12-18T10:46:20.488Z,90.82
2022-12-18T10:47:20.417Z,90.92
2022-12-18T10:48:20.634Z,91.14
2022-12-18T10:49:20.649Z,91.66
2022-12-18T10:50:20.103Z,91.66
2022-12-18T10:51:20.134Z,91.87
2022-12-18T10:52:20.145Z,91.87
2022-12-18T10:53:20.146Z,92.19
2022-12-18T10:54:20.125Z,92.23
2022-12-18T10:55:20.271Z,92.44
2022-12-18T10:56:20.110Z,93.07
2022-12-18T10:57:20.296Z,93.59
2022-12-18T10:58:26.361Z,93.49
2022-12-18T10:59:20.351Z,93.91
2022-12-18T11:00:20.101Z,93.97
2022-12-18T11:01:20.657Z,93.97
2022-12-18T11:02:20.863Z,94.01
2022-12-18T11:03:20.577Z,94.18
2022-12-18T11:04:20.060Z,94.23
2022-12-18T11:05:20.018Z,94.39
2022-12-18T11:06:20.027Z,94.60
2022-12-18T11:07:20.016Z,94.60
2022-12-18T11:08:20.026Z,94.54
2022-12-18T11:09:20.017Z,94.75
2022-12-18T11:10:20.039Z,94.92
2022-12-18T11:11:19.976Z,94.81
2022-12-18T11:12:19.987Z,94.96
2022-12-18T11:13:19.998Z,95.44
2022-12-18T11:14:19.995Z,95.38
2022-12-18T11:15:20.004Z,95.48
2022-12-18T11:16:20.155Z,95.65
2022-12-18T11:17:27.318Z,95.76
2022-12-18T11:18:20.070Z,95.86
2022-12-18T11:19:20.074Z,95.86
2022-12-18T11:20:20.084Z,95.97
2022-12-18T11:21:20.094Z,96.03
2022-12-18T11:22:20.110Z,96.24
2022-12-18T11:23:19.912Z,96.18
2022-12-18T11:24:20.270Z,96.13
2022-12-18T11:25:32.951Z,96.13
2022-12-18T11:26:20.283Z,96.24
2022-12-18T11:27:20.289Z,96.13
2022-12-18T11:28:19.888Z,96.13
2022-12-18T11:29:19.925Z,96.03
2022-12-18T11:30:19.901Z,95.82
2022-12-18T11:31:19.943Z,96.03
2022-12-18T11:32:19.970Z,95.98
2022-12-18T11:33:20.137Z,95.98
2022-12-18T11:34:29.018Z,96.09
2022-12-18T11:35:19.987Z,95.98
2022-12-18T11:36:19.948Z,95.88
2022-12-18T11:37:19.947Z,96.09
2022-12-18T11:38:20.025Z,95.98
2022-12-18T11:39:20.175Z,95.98
2022-12-18T11:40:20.177Z,96.09
2022-12-18T11:41:19.792Z,95.98
2022-12-18T11:42:20.196Z,96.04
2022-12-18T11:43:20.245Z,96.15
2022-12-18T11:44:20.824Z,96.25
2022-12-18T11:45:20.424Z,96.25
2022-12-18T11:46:20.368Z,96.25
2022-12-18T11:47:20.014Z,95.94
2022-12-18T11:48:20.293Z,95.84
2022-12-18T11:49:19.842Z,96.04
2022-12-18T11:50:19.873Z,96.25
2022-12-18T11:51:19.741Z,96.36
2022-12-18T11:52:19.853Z,96.47
2022-12-18T11:53:20.060Z,96.47
2022-12-18T11:54:19.867Z,96.57
2022-12-18T11:55:19.712Z,96.78
2022-12-18T11:56:20.053Z,96.78
2022-12-18T11:57:20.082Z,96.84
2022-12-18T11:58:20.310Z,97.05
2022-12-18T11:59:19.771Z,97.16
2022-12-18T12:00:20.109Z,97.36
2022-12-18T12:01:20.590Z,97.58
2022-12-18T12:02:20.552Z,97.58
2022-12-18T12:03:20.566Z,97.78
2022-12-18T12:04:20.186Z,97.58
2022-12-18T12:05:20.548Z,97.58
2022-12-18T12:06:19.779Z,97.58
2022-12-18T12:07:19.778Z,97.63
2022-12-18T12:08:19.757Z,97.74
2022-12-18T12:09:19.597Z,98.05
2022-12-18T12:10:19.775Z,98.05
2022-12-18T12:11:19.769Z,97.74
2022-12-18T12:12:19.995Z,97.85
2022-12-18T12:13:19.997Z,98.05
2022-12-18T12:14:19.625Z,98.16
2022-12-18T12:15:19.825Z,98.26
2022-12-18T12:16:20.099Z,98.05
2022-12-18T12:17:20.271Z,98.26
2022-12-18T12:18:19.824Z,98.16
2022-12-18T12:19:20.033Z,98.16
2022-12-18T12:20:20.253Z,98.16
2022-12-18T12:21:20.462Z,97.85
2022-12-18T12:22:20.362Z,97.32
2022-12-18T12:23:22.468Z,97.00
2022-12-18T12:24:20.062Z,97.11
2022-12-18T12:25:20.321Z,97.38
2022-12-18T12:26:20.231Z,97.53
2022-12-18T12:27:19.562Z,97.74
2022-12-18T12:28:19.493Z,97.63
2022-12-18T12:29:21.268Z,97.63
2022-12-18T12:30:19.514Z,97.53
2022-12-18T12:31:19.512Z,97.49
2022-12-18T12:32:19.508Z,97.69
2022-12-18T12:33:19.521Z,97.69
2022-12-18T12:34:19.942Z,97.38
2022-12-18T12:35:19.529Z,96.86
2022-12-18T12:36:19.537Z,96.86
2022-12-18T12:37:19.617Z,97.28
2022-12-18T12:38:19.547Z,97.49
2022-12-18T12:39:19.437Z,97.49
2022-12-18T12:40:49.093Z,97.59
2022-12-18T12:41:19.446Z,97.80
2022-12-18T12:42:19.426Z,97.91
2022-12-18T12:43:19.425Z,97.80
2022-12-18T12:44:19.385Z,98.01
2022-12-18T12:45:19.495Z,98.01
2022-12-18T12:46:19.460Z,98.11
2022-12-18T12:47:19.403Z,98.32
2022-12-18T12:48:19.414Z,98.54
2022-12-18T12:49:19.354Z,98.64
2022-12-18T12:50:19.335Z,98.64
2022-12-18T12:51:19.355Z,98.54
2022-12-18T12:52:19.447Z,98.43